createdAt,value
2019-04-16T00:02:20.344Z,98624.85
2019-04-16T00:04:43.033Z,98614.83
2019-04-16T00:07:05.825Z,98624.19
2019-04-16T00:09:19.648Z,98625.42
2019-04-16T00:11:51.928Z,98623.41
2019-04-16T00:14:05.664Z,98625.69
2019-04-16T00:16:12.980Z,98629.63
2019-04-16T00:18:19.486Z,98628.80
2019-04-16T00:20:24.696Z,98620.08
2019-04-16T00:22:39.000Z,98627.83
2019-04-16T00:24:47.318Z,98631.16
2019-04-16T00:26:59.314Z,98635.10
2019-04-16T00:29:03.219Z,98632.34
2019-04-16T00:31:08.442Z,98639.74
2019-04-16T00:33:13.568Z,98633.17
2019-04-16T00:35:18.632Z,98636.28
2019-04-16T00:37:23.764Z,98636.14
2019-04-16T00:39:28.774Z,98631.86
2019-04-16T00:41:33.804Z,98635.50
2019-04-16T00:43:38.818Z,98633.87
2019-04-16T00:45:44.159Z,98632.07
2019-04-16T00:47:51.457Z,98631.56
2019-04-16T00:49:58.787Z,98631.08
2019-04-16T00:52:05.902Z,98630.75
2019-04-16T00:54:11.205Z,98629.92
2019-04-16T00:56:16.879Z,98633.38
2019-04-16T00:58:21.972Z,98631.91
2019-04-16T01:00:27.765Z,98633.70
2019-04-16T01:02:33.785Z,98631.08
2019-04-16T01:04:38.817Z,98632.25
2019-04-16T01:06:43.909Z,98633.09
2019-04-16T01:08:54.852Z,98631.77
2019-04-16T01:10:55.737Z,98634.75
2019-04-16T01:13:00.759Z,98634.05
2019-04-16T01:15:06.076Z,98633.44
2019-04-16T01:17:11.912Z,98636.89
2019-04-16T01:19:16.953Z,98635.09
2019-04-16T01:21:21.966Z,98639.39
2019-04-16T01:23:27.000Z,98636.41
2019-04-16T01:25:32.053Z,98635.45
2019-04-16T01:27:44.736Z,98635.45
2019-04-16T01:29:49.811Z,98634.00
2019-04-16T01:32:12.801Z,98627.91
2019-04-16T01:34:26.961Z,98627.91
2019-04-16T01:36:39.168Z,98627.21
2019-04-16T01:39:07.525Z,98631.16
2019-04-16T01:41:04.074Z,98622.30
2019-04-16T01:43:09.146Z,98617.53
2019-04-16T01:45:14.188Z,98620.02
2019-04-16T01:47:19.276Z,98616.42
2019-04-16T01:49:24.353Z,98615.78
2019-04-16T01:51:29.385Z,98610.52
2019-04-16T01:53:34.418Z,98610.52
2019-04-16T01:55:42.311Z,98611.22
2019-04-16T01:57:46.245Z,98611.70
2019-04-16T01:59:51.284Z,98615.16
2019-04-16T02:01:57.436Z,98623.26
2019-04-16T02:04:02.505Z,98613.71
2019-04-16T02:06:07.699Z,98617.52
2019-04-16T02:08:12.716Z,98614.67
2019-04-16T02:10:17.746Z,98622.13
2019-04-16T02:12:22.756Z,98614.89
2019-04-16T02:14:27.787Z,98611.78
2019-04-16T02:16:32.800Z,98617.38
2019-04-16T02:18:37.839Z,98620.50
2019-04-16T02:20:42.868Z,98618.70
2019-04-16T02:22:47.910Z,98614.59
2019-04-16T02:24:52.926Z,98615.07
2019-04-16T02:26:57.992Z,98617.22
2019-04-16T02:29:03.187Z,98616.25
2019-04-16T02:31:13.819Z,98619.70
2019-04-16T02:33:14.937Z,98614.11
2019-04-16T02:35:19.975Z,98621.86
2019-04-16T02:37:24.987Z,98616.25
2019-04-16T02:39:46.938Z,98618.39
2019-04-16T02:41:36.802Z,98614.94
2019-04-16T02:43:41.857Z,98611.48
2019-04-16T02:45:46.873Z,98613.63
2019-04-16T02:47:51.885Z,98610.51
2019-04-16T02:49:58.021Z,98607.39
2019-04-16T02:52:15.239Z,98599.52
2019-04-16T02:54:20.144Z,98605.73
2019-04-16T02:56:41.699Z,98605.73
2019-04-16T02:58:50.091Z,98607.05
2019-04-16T03:01:05.664Z,98603.59
2019-04-16T03:03:14.236Z,98608.71
2019-04-16T03:05:26.490Z,98614.94
2019-04-16T03:07:33.388Z,98613.27
2019-04-16T03:09:40.267Z,98614.59
2019-04-16T03:11:45.547Z,98611.61
2019-04-16T03:13:52.877Z,98613.75
2019-04-16T03:16:15.818Z,98610.64
2019-04-16T03:18:24.509Z,98618.05
2019-04-16T03:20:29.558Z,98622.47
2019-04-16T03:22:34.701Z,98621.16
2019-04-16T03:24:40.196Z,98622.13
2019-04-16T03:26:47.637Z,98624.97
2019-04-16T03:28:55.456Z,98621.02
2019-04-16T03:30:59.458Z,98623.66
2019-04-16T03:33:10.288Z,98627.94
2019-04-16T03:35:11.236Z,98625.94
2019-04-16T03:37:16.278Z,98627.11
2019-04-16T03:39:21.297Z,98625.80
2019-04-16T03:41:26.309Z,98624.83
2019-04-16T03:43:32.784Z,98624.00
2019-04-16T03:45:40.443Z,98634.03
2019-04-16T03:47:44.878Z,98631.75
2019-04-16T03:49:49.916Z,98633.89
2019-04-16T03:51:54.939Z,98639.16
2019-04-16T03:53:59.970Z,98635.70
2019-04-16T03:56:05.060Z,98635.70
2019-04-16T03:58:10.076Z,98632.09
2019-04-16T04:00:15.323Z,98634.38
2019-04-16T04:02:22.861Z,98636.04
2019-04-16T04:04:29.250Z,98633.41
2019-04-16T04:06:36.521Z,98636.04
2019-04-16T04:08:40.720Z,98636.87
2019-04-16T04:10:45.906Z,98639.50
2019-04-16T04:12:50.920Z,98638.19
2019-04-16T04:14:55.954Z,98634.73
2019-04-16T04:17:05.220Z,98627.81
2019-04-16T04:19:08.022Z,98625.88
2019-04-16T04:21:12.999Z,98626.36
2019-04-16T04:23:18.121Z,98628.50
2019-04-16T04:25:23.153Z,98631.97
2019-04-16T04:27:28.191Z,98624.56
2019-04-16T04:29:33.241Z,98629.81
2019-04-16T04:31:38.284Z,98634.59
2019-04-16T04:33:43.783Z,98633.28
2019-04-16T04:35:51.018Z,98635.42
2019-04-16T04:37:55.708Z,98630.17
2019-04-16T04:40:00.756Z,98638.85
2019-04-16T04:42:05.957Z,98639.02
2019-04-16T04:44:11.122Z,98645.94
2019-04-16T04:46:16.243Z,98641.16
2019-04-16T04:48:24.129Z,98646.42
2019-04-16T04:50:28.055Z,98646.26
2019-04-16T04:52:33.064Z,98641.00
2019-04-16T04:54:38.110Z,98648.89
2019-04-16T04:56:43.118Z,98644.11
2019-04-16T04:58:48.150Z,98648.75
2019-04-16T05:00:53.480Z,98652.34
2019-04-16T05:02:58.514Z,98652.34
2019-04-16T05:05:16.716Z,98649.23
2019-04-16T05:07:21.759Z,98654.84
2019-04-16T05:09:29.334Z,98657.60
2019-04-16T05:11:34.040Z,98660.72
2019-04-16T05:13:39.040Z,98660.80
2019-04-16T05:15:44.080Z,98666.19
2019-04-16T05:17:49.133Z,98665.01
2019-04-16T05:19:54.192Z,98672.77
2019-04-16T05:21:59.276Z,98670.96
2019-04-16T05:24:04.296Z,98669.65
2019-04-16T05:26:09.910Z,98670.61
2019-04-16T05:28:15.182Z,98670.61
2019-04-16T05:30:21.705Z,98681.83
2019-04-16T05:32:32.912Z,98675.39
2019-04-16T05:34:34.619Z,98681.13
2019-04-16T05:36:46.223Z,98687.57
2019-04-16T05:38:47.381Z,98687.70
2019-04-16T05:40:52.411Z,98695.94
2019-04-16T05:42:58.958Z,98694.28
2019-04-16T05:45:05.527Z,98704.17
2019-04-16T05:47:11.481Z,98705.14
2019-04-16T05:49:16.535Z,98709.09
2019-04-16T05:51:21.590Z,98713.86
2019-04-16T05:53:26.568Z,98718.29
2019-04-16T05:55:57.483Z,98719.13
2019-04-16T05:58:02.692Z,98716.01
2019-04-16T06:00:10.442Z,98716.62
2019-04-16T06:02:19.948Z,98723.06
2019-04-16T06:04:25.724Z,98727.14
2019-04-16T06:06:31.848Z,98724.86
2019-04-16T06:08:40.769Z,98727.49
2019-04-16T06:10:49.950Z,98731.30
2019-04-16T06:13:19.285Z,98742.17
2019-04-16T06:15:37.476Z,98741.34
2019-04-16T06:18:07.794Z,98745.63
2019-04-16T06:20:28.801Z,98747.08
2019-04-16T06:22:43.316Z,98746.38
2019-04-16T06:25:16.281Z,98747.56
2019-04-16T06:27:43.210Z,98747.08
2019-04-16T06:30:05.829Z,98749.58
2019-04-16T06:32:35.965Z,98754.13
2019-04-16T06:34:58.609Z,98755.45
2019-04-16T06:37:26.343Z,98753.78
2019-04-16T06:40:04.720Z,98762.64
2019-04-16T06:42:29.181Z,98767.06
2019-04-16T06:44:39.870Z,98771.49
2019-04-16T06:46:51.353Z,98773.29
2019-04-16T06:49:17.305Z,98781.74
2019-04-16T06:51:36.709Z,98784.72
2019-04-16T06:53:57.868Z,98780.56
2019-04-16T06:56:25.076Z,98784.86
2019-04-16T06:58:57.186Z,98788.31
2019-04-16T07:01:16.367Z,98792.61
2019-04-16T07:03:39.102Z,98792.61
2019-04-16T07:06:03.988Z,98798.83
2019-04-16T07:08:39.301Z,98796.20
2019-04-16T07:10:53.891Z,98796.69
2019-04-16T07:12:58.900Z,98803.39
2019-04-16T07:15:04.409Z,98806.23
2019-04-16T07:17:11.093Z,98803.48
2019-04-16T07:19:17.847Z,98813.35
2019-04-16T07:21:22.958Z,98808.92
2019-04-16T07:23:28.016Z,98815.84
2019-04-16T07:25:39.737Z,98810.45
2019-04-16T07:27:57.443Z,98810.80
2019-04-16T07:30:08.861Z,98809.36
2019-04-16T07:32:41.886Z,98810.80
2019-04-16T07:35:05.856Z,98813.09
2019-04-16T07:37:32.841Z,98810.94
2019-04-16T07:39:56.963Z,98821.81
2019-04-16T07:42:11.755Z,98824.30
2019-04-16T07:44:20.937Z,98822.64
2019-04-16T07:46:34.972Z,98819.53
2019-04-16T07:49:03.470Z,98823.47
2019-04-16T07:51:39.827Z,98822.98
2019-04-16T07:54:03.783Z,98823.95
2019-04-16T07:56:14.573Z,98823.25
2019-04-16T07:58:20.720Z,98824.92
2019-04-16T08:00:25.752Z,98829.70
2019-04-16T08:02:30.769Z,98833.16
2019-04-16T08:04:36.436Z,98834.83
2019-04-16T08:06:46.290Z,98840.44
2019-04-16T08:08:48.362Z,98839.12
2019-04-16T08:10:53.394Z,98838.64
2019-04-16T08:13:06.549Z,98835.17
2019-04-16T08:15:14.554Z,98837.32
2019-04-16T08:17:18.378Z,98840.97
2019-04-16T08:19:36.177Z,98849.70
2019-04-16T08:21:30.181Z,98844.56
2019-04-16T08:23:39.253Z,98844.92
2019-04-16T08:25:44.573Z,98846.23
2019-04-16T08:27:50.746Z,98850.17
2019-04-16T08:30:01.859Z,98847.06
2019-04-16T08:32:03.467Z,98849.70
2019-04-16T08:34:08.558Z,98853.02
2019-04-16T08:36:13.713Z,98861.27
2019-04-16T08:38:18.758Z,98857.33
2019-04-16T08:40:23.981Z,98856.00
2019-04-16T08:42:43.900Z,98853.38
2019-04-16T08:44:37.853Z,98856.70
2019-04-16T08:46:42.874Z,98854.91
2019-04-16T08:48:49.409Z,98859.66
2019-04-16T08:50:57.848Z,98862.10
2019-04-16T08:53:01.755Z,98855.25
2019-04-16T08:55:06.834Z,98852.80
2019-04-16T08:57:11.845Z,98859.92
2019-04-16T08:59:16.953Z,98858.94
2019-04-16T09:01:26.325Z,98865.23
2019-04-16T09:03:31.707Z,98866.87
2019-04-16T09:05:41.240Z,98868.25
2019-04-16T09:07:43.599Z,98866.61
2019-04-16T09:09:57.027Z,98865.58
2019-04-16T09:12:01.979Z,98876.02
2019-04-16T09:14:07.095Z,98867.38
2019-04-16T09:16:13.713Z,98866.56
2019-04-16T09:18:26.307Z,98865.66
2019-04-16T09:20:38.494Z,98871.29
2019-04-16T09:22:49.153Z,98873.48
2019-04-16T09:25:18.819Z,98879.63
2019-04-16T09:27:35.488Z,98882.98
2019-04-16T09:30:02.741Z,98883.52
2019-04-16T09:32:24.565Z,98878.98
2019-04-16T09:34:49.446Z,98884.16
2019-04-16T09:37:19.710Z,98880.95
2019-04-16T09:39:44.980Z,98885.29
2019-04-16T09:41:51.643Z,98883.00
2019-04-16T09:43:58.329Z,98887.81
2019-04-16T09:46:10.288Z,98892.83
2019-04-16T09:48:10.123Z,98888.66
2019-04-16T09:50:15.270Z,98890.96
2019-04-16T09:52:23.223Z,98885.36
2019-04-16T09:54:27.004Z,98890.73
2019-04-16T09:56:32.727Z,98885.84
2019-04-16T09:58:42.340Z,98882.02
2019-04-16T10:00:47.328Z,98878.20
2019-04-16T10:02:55.021Z,98875.70
2019-04-16T10:04:59.187Z,98872.41
2019-04-16T10:07:05.145Z,98878.73
2019-04-16T10:09:10.161Z,98882.42
2019-04-16T10:11:18.384Z,98882.42
2019-04-16T10:13:31.164Z,98888.27
2019-04-16T10:15:29.094Z,98888.75
2019-04-16T10:17:34.142Z,98894.63
2019-04-16T10:19:42.954Z,98889.98
2019-04-16T10:21:45.933Z,98890.58
2019-04-16T10:23:59.422Z,98890.58
2019-04-16T10:26:05.155Z,98891.41
2019-04-16T10:28:16.851Z,98897.61
2019-04-16T10:30:40.824Z,98893.00
2019-04-16T10:32:46.261Z,98897.41
2019-04-16T10:34:51.295Z,98897.05
2019-04-16T10:36:56.276Z,98893.12
2019-04-16T10:39:07.583Z,98890.49
2019-04-16T10:41:16.424Z,98897.17
2019-04-16T10:43:44.903Z,98897.29
2019-04-16T10:45:58.447Z,98902.18
2019-04-16T10:48:26.902Z,98896.42
2019-04-16T10:50:53.649Z,98894.87
2019-04-16T10:53:17.201Z,98900.86
2019-04-16T10:55:28.093Z,98903.70
2019-04-16T10:57:48.056Z,98906.11
2019-04-16T11:00:17.958Z,98906.11
2019-04-16T11:02:44.805Z,98914.10
2019-04-16T11:05:20.062Z,98913.98
2019-04-16T11:07:27.739Z,98913.83
2019-04-16T11:09:34.337Z,98919.23
2019-04-16T11:11:39.463Z,98916.09
2019-04-16T11:13:58.923Z,98914.78
2019-04-16T11:15:54.802Z,98915.14
2019-04-16T11:18:00.342Z,98913.98
2019-04-16T11:20:06.166Z,98912.88
2019-04-16T11:22:12.268Z,98917.17
2019-04-16T11:24:20.323Z,98916.21
2019-04-16T11:26:23.964Z,98918.48
2019-04-16T11:28:28.979Z,98916.33
2019-04-16T11:30:39.967Z,98923.25
2019-04-16T11:32:45.963Z,98924.20
2019-04-16T11:34:51.006Z,98923.97
2019-04-16T11:36:58.371Z,98929.21
2019-04-16T11:39:02.701Z,98923.16
2019-04-16T11:41:08.817Z,98920.54
2019-04-16T11:43:13.829Z,98920.54
2019-04-16T11:45:19.647Z,98916.25
2019-04-16T11:47:27.904Z,98918.03
2019-04-16T11:49:31.591Z,98919.34
2019-04-16T11:51:36.669Z,98918.87
2019-04-16T11:53:41.707Z,98922.80
2019-04-16T11:55:46.714Z,98922.33
2019-04-16T11:57:51.758Z,98919.34
2019-04-16T12:00:06.396Z,98917.92
2019-04-16T12:02:34.480Z,98918.87
2019-04-16T12:04:59.623Z,98916.60
2019-04-16T12:07:28.865Z,98923.28
2019-04-16T12:09:53.211Z,98920.90
2019-04-16T12:12:10.718Z,98929.72
2019-04-16T12:14:43.806Z,98927.58
2019-04-16T12:16:59.129Z,98923.88
2019-04-16T12:19:30.027Z,98931.39
2019-04-16T12:21:54.528Z,98933.06
2019-04-16T12:24:20.454Z,98930.67
2019-04-16T12:26:50.543Z,98938.19
2019-04-16T12:29:04.029Z,98935.72
2019-04-16T12:31:36.074Z,98934.73
2019-04-16T12:33:52.861Z,98935.72
2019-04-16T12:36:15.848Z,98941.28
2019-04-16T12:38:27.444Z,98941.55
2019-04-16T12:41:00.553Z,98941.31
2019-04-16T12:43:27.808Z,98945.25
2019-04-16T12:45:53.166Z,98941.20
2019-04-16T12:48:02.247Z,98948.11
2019-04-16T12:50:32.552Z,98946.44
2019-04-16T12:53:11.635Z,98948.59
2019-04-16T12:55:39.110Z,98954.20
2019-04-16T12:57:49.598Z,98949.19
2019-04-16T13:00:08.068Z,98952.40
2019-04-16T13:02:41.957Z,98953.12
2019-04-16T13:05:02.327Z,98955.50
2019-04-16T13:07:27.440Z,98960.22
2019-04-16T13:09:47.383Z,98963.58
2019-04-16T13:11:58.620Z,98958.09
2019-04-16T13:14:41.175Z,98961.67
2019-04-16T13:17:09.070Z,98966.45
2019-04-16T13:19:38.041Z,98967.04
2019-04-16T13:21:48.632Z,98968.23
2019-04-16T13:24:28.535Z,98966.09
2019-04-16T13:26:46.682Z,98963.94
2019-04-16T13:28:55.147Z,98970.14
2019-04-16T13:30:59.967Z,98966.45
2019-04-16T13:33:05.258Z,98969.78
2019-04-16T13:35:10.715Z,98971.81
2019-04-16T13:37:15.894Z,98978.58
2019-04-16T13:39:40.729Z,98975.62
2019-04-16T13:41:47.197Z,98979.41
2019-04-16T13:44:07.943Z,98982.88
2019-04-16T14:04:22.235Z,98993.92
2019-04-16T14:06:27.384Z,98990.13
2019-04-16T14:08:32.439Z,98993.44
2019-04-16T14:10:37.941Z,98994.52
2019-04-16T14:12:43.382Z,98999.02
2019-04-16T14:14:50.237Z,99005.81
2019-04-16T14:16:55.639Z,99002.25
2019-04-16T14:19:02.547Z,98998.91
2019-04-16T14:21:08.394Z,99002.84
2019-04-16T14:23:13.774Z,99001.16
2019-04-16T14:25:21.909Z,99000.59
2019-04-16T14:27:30.679Z,98998.92
2019-04-16T14:29:38.987Z,99005.11
2019-04-16T14:31:46.110Z,99009.88
2019-04-16T14:34:01.653Z,99004.39
2019-04-16T14:36:08.070Z,99003.92
2019-04-16T14:38:17.689Z,98998.67
2019-04-16T14:40:23.488Z,99003.45
2019-04-16T14:42:29.674Z,99000.82
2019-04-16T14:44:46.197Z,99002.49
2019-04-16T14:46:52.883Z,98994.37
2019-04-16T14:48:58.158Z,98992.12
2019-04-16T14:51:04.504Z,98992.37
2019-04-16T14:53:10.116Z,98993.20
2019-04-16T14:55:34.218Z,98995.23
2019-04-16T14:57:58.289Z,99001.16
2019-04-16T15:00:22.291Z,99000.00
2019-04-16T15:02:45.955Z,99003.78
2019-04-16T15:05:08.657Z,98999.17
2019-04-16T15:07:34.664Z,99000.48
2019-04-16T15:10:11.002Z,98999.52
2019-04-16T15:12:22.049Z,99002.49
2019-04-16T15:14:32.348Z,99005.23
2019-04-16T15:16:50.793Z,99001.19
2019-04-16T15:19:11.179Z,98996.41
2019-04-16T15:21:43.223Z,99000.59
2019-04-16T15:24:04.558Z,98997.50
2019-04-16T15:26:34.857Z,99004.52
2019-04-16T15:28:54.142Z,99002.37
2019-04-16T15:31:09.949Z,98999.75
2019-04-16T15:33:39.005Z,99004.05
2019-04-16T15:35:48.188Z,99007.51
2019-04-16T15:37:59.361Z,99016.56
2019-04-16T15:40:08.567Z,99016.06
2019-04-16T15:42:22.842Z,99014.16
2019-04-16T15:44:38.927Z,99016.78
2019-04-16T15:46:51.824Z,99014.88
2019-04-16T15:49:23.280Z,99015.23
2019-04-16T15:51:56.268Z,99020.96
2019-04-16T15:54:11.435Z,99014.16
2019-04-16T15:56:35.404Z,99017.73
2019-04-16T15:59:03.766Z,99018.45
2019-04-16T16:01:26.369Z,99017.03
2019-04-16T16:03:49.204Z,99025.01
2019-04-16T16:06:07.198Z,99019.77
2019-04-16T16:08:37.268Z,99026.80
2019-04-16T16:10:47.303Z,99023.81
2019-04-16T16:12:53.622Z,99028.11
2019-04-16T16:14:59.383Z,99024.41
2019-04-16T16:17:05.090Z,99024.78
2019-04-16T16:19:12.018Z,99019.89
2019-04-16T16:21:16.954Z,99021.32
2019-04-16T16:23:21.986Z,99018.11
2019-04-16T16:25:27.035Z,99020.50
2019-04-16T16:27:32.154Z,99022.73
2019-04-16T16:29:37.415Z,99024.44
2019-04-16T16:31:42.458Z,99023.13
2019-04-16T16:33:47.537Z,99022.29
2019-04-16T16:35:58.893Z,99027.30
2019-04-16T16:37:59.375Z,99028.61
2019-04-16T16:40:06.154Z,99030.40
2019-04-16T16:42:23.803Z,99025.52
2019-04-16T16:44:30.545Z,99025.87
2019-04-16T16:47:06.720Z,99028.97
2019-04-16T16:49:15.438Z,99024.56
2019-04-16T16:51:23.165Z,99016.92
2019-04-16T16:53:48.810Z,99008.70
2019-04-16T16:55:58.987Z,99016.81
2019-04-16T16:58:17.940Z,99018.13
2019-04-16T17:00:56.400Z,99016.81
2019-04-16T17:03:12.507Z,99012.05
2019-04-16T17:05:36.560Z,99017.29
2019-04-16T17:07:41.865Z,99012.16
2019-04-16T17:09:46.918Z,99018.23
2019-04-16T17:11:55.624Z,99014.66
2019-04-16T17:14:01.659Z,99015.97
2019-04-16T17:16:05.615Z,99016.81
2019-04-16T17:18:10.793Z,99023.00
2019-04-16T17:20:15.899Z,99021.58
2019-04-16T17:22:29.321Z,99022.53
2019-04-16T17:24:34.485Z,99027.19
2019-04-16T17:26:39.532Z,99027.19
2019-04-16T17:28:44.987Z,99029.80
2019-04-16T17:30:50.428Z,99028.02
2019-04-16T17:32:55.613Z,99031.59
2019-04-16T17:35:00.743Z,99034.22
2019-04-16T17:37:07.006Z,99033.27
2019-04-16T17:39:13.332Z,99024.32
2019-04-16T17:41:23.619Z,99024.20
2019-04-16T17:44:00.666Z,99030.03
2019-04-16T17:46:24.733Z,99032.77
2019-04-16T17:48:45.198Z,99032.53
2019-04-16T17:51:18.584Z,99043.13
2019-04-16T17:53:41.455Z,99039.42
2019-04-16T17:56:02.966Z,99044.42
2019-04-16T17:58:15.047Z,99041.59
2019-04-16T18:00:42.159Z,99047.06
2019-04-16T18:03:05.343Z,99051.36
2019-04-16T18:05:33.226Z,99053.72
2019-04-16T18:07:57.184Z,99057.66
2019-04-16T18:10:26.926Z,99056.10
2019-04-16T18:12:40.437Z,99059.78
2019-04-16T18:15:07.180Z,99061.05
2019-04-16T18:17:28.766Z,99058.80
2019-04-16T18:19:52.788Z,99057.67
2019-04-16T18:22:06.789Z,99062.33
2019-04-16T18:24:49.208Z,99063.27
2019-04-16T18:27:31.675Z,99058.14
2019-04-16T18:29:47.314Z,99064.44
2019-04-16T18:32:11.254Z,99070.03
2019-04-16T18:34:24.307Z,99070.61
2019-04-16T18:36:39.144Z,99081.19
2019-04-16T18:39:18.284Z,99079.41
2019-04-16T18:41:34.772Z,99084.17
2019-04-16T18:44:01.771Z,99085.70
2019-04-16T18:46:18.353Z,99085.47
2019-04-16T18:48:26.452Z,99087.63
2019-04-16T18:52:37.531Z,99089.25
2019-04-16T18:54:42.739Z,99094.37
2019-04-16T18:56:47.801Z,99096.16
2019-04-16T18:58:52.938Z,99093.55
2019-04-16T19:01:01.310Z,99104.86
2019-04-16T19:03:06.712Z,99099.25
2019-04-16T19:05:11.824Z,99107.58
2019-04-16T19:07:16.948Z,99108.89
2019-04-16T19:09:22.008Z,99108.52
2019-04-16T19:11:27.076Z,99108.41
2019-04-16T19:13:32.104Z,99116.25
2019-04-16T19:15:37.207Z,99112.80
2019-04-16T19:17:42.259Z,99119.34
2019-04-16T19:19:47.366Z,99124.58
2019-04-16T19:21:53.103Z,99126.83
2019-04-16T19:23:58.549Z,99129.45
2019-04-16T19:26:03.637Z,99126.10
2019-04-16T19:28:08.707Z,99126.94
2019-04-16T19:30:13.774Z,99127.88
2019-04-16T19:32:18.835Z,99135.73
2019-04-16T19:34:23.912Z,99136.20
2019-04-16T19:36:29.027Z,99139.30
2019-04-16T19:38:35.776Z,99135.84
2019-04-16T19:40:40.783Z,99142.05
2019-04-16T19:42:46.870Z,99146.45
2019-04-16T19:44:52.024Z,99142.05
2019-04-16T19:46:57.033Z,99147.39
2019-04-16T19:49:02.065Z,99147.75
2019-04-16T19:51:08.873Z,99148.09
2019-04-16T19:53:15.117Z,99150.48
2019-04-16T19:55:20.243Z,99149.27
2019-04-16T19:57:25.293Z,99149.27
2019-04-16T19:59:30.313Z,99152.47
2019-04-16T20:01:35.356Z,99150.32
2019-04-16T20:03:43.410Z,99156.50
2019-04-16T20:05:47.178Z,99154.82
2019-04-16T20:07:52.266Z,99156.97
2019-04-16T20:09:57.306Z,99156.63
2019-04-16T20:12:02.450Z,99157.94
2019-04-16T20:14:07.553Z,99164.95
2019-04-16T20:16:12.588Z,99165.06
2019-04-16T20:18:19.244Z,99168.14
2019-04-16T20:20:24.290Z,99171.70
2019-04-16T20:22:30.252Z,99177.41
2019-04-16T20:24:36.583Z,99179.66
2019-04-16T20:26:41.627Z,99180.87
2019-04-16T20:28:48.619Z,99183.22
2019-04-16T20:31:00.466Z,99181.91
2019-04-16T20:33:00.157Z,99172.38
2019-04-16T20:35:05.384Z,99179.06
2019-04-16T20:37:11.480Z,99174.40
2019-04-16T20:39:16.493Z,99180.58
2019-04-16T20:41:21.616Z,99183.19
2019-04-16T20:43:26.631Z,99174.61
2019-04-16T20:45:31.767Z,99177.69
2019-04-16T20:47:39.979Z,99180.20
2019-04-16T20:49:45.979Z,99182.92
2019-04-16T20:51:50.731Z,99185.65
2019-04-16T20:53:55.767Z,99192.19
2019-04-16T20:56:00.859Z,99185.78
2019-04-16T20:58:05.971Z,99190.64
2019-04-16T21:00:12.775Z,99190.28
2019-04-16T21:02:17.983Z,99185.62
2019-04-16T21:04:23.013Z,99190.95
2019-04-16T21:06:28.192Z,99189.75
2019-04-16T21:08:33.206Z,99189.41
2019-04-16T21:10:38.300Z,99186.03
2019-04-16T21:12:45.368Z,99185.19
2019-04-16T21:14:50.906Z,99185.66
2019-04-16T21:16:56.849Z,99190.98
2019-04-16T21:19:02.261Z,99184.45
2019-04-16T21:21:08.264Z,99194.55
2019-04-16T21:23:13.299Z,99193.00
2019-04-16T21:25:18.336Z,99191.33
2019-04-16T21:27:23.347Z,99192.16
2019-04-16T21:29:34.394Z,99184.42
2019-04-16T21:31:43.197Z,99187.13
2019-04-16T21:34:00.025Z,99183.21
2019-04-16T21:36:05.685Z,99184.16
2019-04-16T21:38:29.619Z,99180.80
2019-04-16T21:40:34.663Z,99180.33
2019-04-16T21:42:39.682Z,99180.43
2019-04-16T21:44:45.452Z,99176.64
2019-04-16T21:46:52.359Z,99185.80
2019-04-16T21:48:59.780Z,99177.20
2019-04-16T21:51:05.470Z,99184.69
2019-04-16T21:53:10.615Z,99183.48
2019-04-16T21:55:15.651Z,99185.63
2019-04-16T21:57:20.664Z,99180.03
2019-04-16T21:59:25.695Z,99181.91
2019-04-16T22:01:42.070Z,99183.21
2019-04-16T22:03:51.129Z,99180.27
2019-04-16T22:05:56.186Z,99176.80
2019-04-16T22:08:01.207Z,99180.27
2019-04-16T22:10:06.283Z,99179.52
2019-04-16T22:12:15.242Z,99178.78
2019-04-16T22:14:22.036Z,99178.41
2019-04-16T22:16:26.704Z,99178.05
2019-04-16T22:18:31.708Z,99174.96
2019-04-16T22:20:36.770Z,99172.95
2019-04-16T22:22:43.676Z,99170.80
2019-04-16T22:24:48.680Z,99171.27
2019-04-16T22:26:55.367Z,99173.52
2019-04-16T22:29:00.401Z,99173.72
2019-04-16T22:31:05.561Z,99169.33
2019-04-16T22:33:10.599Z,99173.34
2019-04-16T22:35:15.604Z,99173.25
2019-04-16T22:37:20.646Z,99181.19
2019-04-16T22:39:50.811Z,99182.50
2019-04-16T22:42:03.354Z,99186.05
2019-04-16T22:44:23.371Z,99185.34
2019-04-16T22:46:32.043Z,99182.92
2019-04-16T22:48:37.131Z,99191.23
2019-04-16T22:50:42.173Z,99190.87
2019-04-16T22:52:47.183Z,99190.03
2019-04-16T22:54:53.029Z,99192.64
2019-04-16T22:57:02.932Z,99196.09
2019-04-16T22:59:08.868Z,99197.13
2019-04-16T23:01:14.318Z,99190.73
2019-04-16T23:03:20.343Z,99192.03
2019-04-16T23:05:27.790Z,99191.30
2019-04-16T23:07:32.368Z,99185.70
2019-04-16T23:09:37.379Z,99186.53
2019-04-16T23:11:42.411Z,99188.78
2019-04-16T23:13:47.475Z,99183.18
2019-04-16T23:15:52.532Z,99184.48
2019-04-16T23:17:58.103Z,99189.34
2019-04-16T23:20:03.405Z,99189.34
2019-04-16T23:22:08.596Z,99185.05
2019-04-16T23:24:14.716Z,99183.75
2019-04-16T23:26:19.755Z,99181.60
2019-04-16T23:28:25.118Z,99183.98
2019-04-16T23:30:30.151Z,99187.06
2019-04-16T23:32:35.160Z,99188.00
2019-04-16T23:34:40.291Z,99194.16
2019-04-16T23:36:48.793Z,99191.64
2019-04-16T23:38:52.593Z,99189.03
2019-04-16T23:40:57.672Z,99181.66
2019-04-16T23:43:39.876Z,99195.20
2019-04-16T23:46:12.900Z,99189.25
2019-04-16T23:48:28.423Z,99192.91
2019-04-16T23:50:45.283Z,99192.26
2019-04-16T23:52:56.508Z,99191.08
2019-04-16T23:55:07.764Z,99194.50
2019-04-16T23:57:24.947Z,99198.08
2019-04-16T23:59:54.984Z,99190.71
